Time;durP1;ratioP1;P1;durP2;ratioP2;P2;SDS_P1;SDS_P2;PMS_P1;PMS_P2;Temp;Humidity;BMP_temperature;BMP_pressure;BME280_temperature;BME280_humidity;BME280_pressure;Samples;Min_cycle;Max_cycle;Signal;HPM_P1;HPM_P2
2022/03/10 00:00:24;;;;;;;22.40;15.90;;;;;;;;;;2073183;28;20192;-61
2022/03/10 00:01:25;;;;;;;22.03;15.73;;;;;;;;;;2073147;28;20177;-61
2022/03/10 00:02:25;;;;;;;18.07;15.97;;;;;;;;;;2072771;28;20626;-65
2022/03/10 00:03:26;;;;;;;19.97;16.10;;;;;;;;;;2072941;28;20638;-58
2022/03/10 00:04:26;;;;;;;20.70;15.57;;;;;;;;;;2072143;28;20259;-64
2022/03/10 00:05:26;;;;;;;18.50;15.40;;;;;;;;;;2073077;28;20185;-61
2022/03/10 00:06:26;;;;;;;16.90;15.07;;;;;;;;;;2067583;28;20181;-63
2022/03/10 00:07:27;;;;;;;20.33;16.43;;;;;;;;;;2070869;28;20173;-61
2022/03/10 00:08:27;;;;;;;20.23;15.87;;;;;;;;;;2072225;28;20180;-63
2022/03/10 00:09:27;;;;;;;22.10;16.43;;;;;;;;;;2071214;28;20676;-60
2022/03/10 00:10:27;;;;;;;20.47;16.00;;;;;;;;;;2072035;28;20726;-62
2022/03/10 00:11:28;;;;;;;19.10;15.43;;;;;;;;;;2070727;28;20192;-61
2022/03/10 00:12:28;;;;;;;19.33;15.53;;;;;;;;;;2056336;28;20269;-61
2022/03/10 00:13:30;;;;;;;19.37;15.67;;;;;;;;;;2057047;28;20182;-62
2022/03/10 00:14:30;;;;;;;18.63;15.27;;;;;;;;;;2070521;28;20173;-63
2022/03/10 00:15:31;;;;;;;19.37;16.63;;;;;;;;;;2072641;28;20414;-61
2022/03/10 00:16:32;;;;;;;17.73;15.93;;;;;;;;;;2070116;28;20177;-63
2022/03/10 00:17:32;;;;;;;20.70;15.30;;;;;;;;;;2073383;28;20165;-59
2022/03/10 00:18:32;;;;;;;19.70;15.80;;;;;;;;;;2072122;28;20969;-60
2022/03/10 00:19:32;;;;;;;18.53;15.83;;;;;;;;;;2065307;28;20709;-63
2022/03/10 00:20:33;;;;;;;20.00;14.70;;;;;;;;;;2064956;28;20212;-63
2022/03/10 00:21:33;;;;;;;21.17;15.93;;;;;;;;;;2069282;28;20178;-63
2022/03/10 00:22:52;;;;;;;23.53;15.93;;;;;;;;;;2072906;28;20188;-62
2022/03/10 00:23:52;;;;;;;25.00;15.93;;;;;;;;;;2065463;28;20181;-63
2022/03/10 00:24:53;;;;;;;21.47;16.87;;;;;;;;;;2072256;28;20458;-64
2022/03/10 00:25:54;;;;;;;17.30;15.50;;;;;;;;;;2068752;28;20237;-63
2022/03/10 00:26:55;;;;;;;19.77;17.20;;;;;;;;;;2073301;28;20172;-63
2022/03/10 00:27:55;;;;;;;19.77;15.47;;;;;;;;;;2064062;28;20955;-61
2022/03/10 00:28:55;;;;;;;18.17;14.83;;;;;;;;;;2064740;28;20199;-63
2022/03/10 00:29:56;;;;;;;17.70;15.23;;;;;;;;;;2068787;28;20188;-64
2022/03/10 00:30:56;;;;;;;17.87;15.57;;;;;;;;;;2064597;28;20196;-63
2022/03/10 00:31:57;;;;;;;18.67;15.67;;;;;;;;;;2064106;28;20260;-59
2022/03/10 00:32:57;;;;;;;17.97;16.07;;;;;;;;;;2072901;28;20649;-62
2022/03/10 00:33:57;;;;;;;24.17;15.63;;;;;;;;;;2072906;28;20168;-60
2022/03/10 00:34:57;;;;;;;18.77;16.37;;;;;;;;;;2073308;28;20205;-63
2022/03/10 00:35:58;;;;;;;20.60;16.97;;;;;;;;;;2073661;28;20308;-62
2022/03/10 00:36:58;;;;;;;21.03;16.57;;;;;;;;;;2073767;28;20165;-63
2022/03/10 00:37:59;;;;;;;22.33;16.57;;;;;;;;;;2073091;28;20201;-60
2022/03/10 00:38:59;;;;;;;19.73;16.10;;;;;;;;;;2073791;28;20175;-61
2022/03/10 00:39:59;;;;;;;21.80;15.03;;;;;;;;;;2073958;28;20212;-63
2022/03/10 00:40:59;;;;;;;18.60;14.70;;;;;;;;;;2073560;28;20563;-62
2022/03/10 00:42:00;;;;;;;18.30;15.50;;;;;;;;;;2073921;28;20161;-63
2022/03/10 00:43:00;;;;;;;21.13;15.40;;;;;;;;;;2065014;28;20170;-63
2022/03/10 00:44:00;;;;;;;17.43;15.10;;;;;;;;;;2064787;28;20530;-62
2022/03/10 00:45:01;;;;;;;19.83;15.60;;;;;;;;;;2073722;28;20717;-61
2022/03/10 00:46:02;;;;;;;18.97;15.47;;;;;;;;;;2074034;28;20345;-65
2022/03/10 00:47:02;;;;;;;19.53;17.40;;;;;;;;;;2065087;28;20178;-63
2022/03/10 00:48:03;;;;;;;26.00;21.33;;;;;;;;;;2065528;28;20165;-61
2022/03/10 00:49:03;;;;;;;24.80;19.97;;;;;;;;;;2073639;28;20189;-63
2022/03/10 00:50:04;;;;;;;21.03;17.00;;;;;;;;;;2073495;28;20181;-64
2022/03/10 00:51:05;;;;;;;21.10;15.90;;;;;;;;;;2065108;28;20178;-62
2022/03/10 00:52:05;;;;;;;21.10;15.93;;;;;;;;;;2065252;28;20178;-61
2022/03/10 00:53:06;;;;;;;20.37;15.73;;;;;;;;;;2073605;28;20460;-55
2022/03/10 00:54:06;;;;;;;21.83;16.37;;;;;;;;;;2073442;28;20235;-61
2022/03/10 00:55:07;;;;;;;17.57;14.40;;;;;;;;;;2073060;28;20260;-60
2022/03/10 00:56:07;;;;;;;22.80;16.73;;;;;;;;;;2064513;28;20272;-62
2022/03/10 00:57:07;;;;;;;18.40;15.17;;;;;;;;;;2064352;28;20179;-62
2022/03/10 00:58:07;;;;;;;22.80;16.00;;;;;;;;;;2069314;28;20626;-63
2022/03/10 00:59:08;;;;;;;18.47;15.33;;;;;;;;;;2063582;28;20663;-61
2022/03/10 01:00:08;;;;;;;22.63;16.47;;;;;;;;;;2059656;28;20693;-63
2022/03/10 01:01:09;;;;;;;19.00;16.43;;;;;;;;;;2060370;28;20171;-63
2022/03/10 01:02:10;;;;;;;21.27;16.83;;;;;;;;;;2069252;28;20191;-63
2022/03/10 01:03:10;;;;;;;19.73;16.13;;;;;;;;;;2068737;28;20192;-62
2022/03/10 01:04:10;;;;;;;20.23;16.50;;;;;;;;;;2069165;28;20346;-63
2022/03/10 01:05:11;;;;;;;19.63;16.77;;;;;;;;;;2073092;28;20176;-60
2022/03/10 01:06:11;;;;;;;23.10;16.33;;;;;;;;;;2072829;28;20184;-60
2022/03/10 01:07:11;;;;;;;22.57;16.43;;;;;;;;;;2072487;28;20177;-64
2022/03/10 01:08:11;;;;;;;22.97;16.23;;;;;;;;;;2073098;28;20169;-62
2022/03/10 01:09:12;;;;;;;19.27;16.23;;;;;;;;;;2071960;28;20193;-64
2022/03/10 01:10:13;;;;;;;18.60;16.40;;;;;;;;;;2072913;28;20204;-63
2022/03/10 01:11:13;;;;;;;22.27;18.03;;;;;;;;;;2071535;28;20197;-59
2022/03/10 01:12:14;;;;;;;20.23;17.30;;;;;;;;;;2063937;28;20786;-64
2022/03/10 01:13:15;;;;;;;18.47;16.03;;;;;;;;;;2062887;28;20193;-63
2022/03/10 01:14:15;;;;;;;20.57;16.73;;;;;;;;;;2072575;28;20216;-64
2022/03/10 01:15:17;;;;;;;18.33;16.00;;;;;;;;;;2073067;28;20399;-64
2022/03/10 01:16:18;;;;;;;20.80;17.43;;;;;;;;;;2070700;28;20189;-62
2022/03/10 01:17:19;;;;;;;20.53;16.27;;;;;;;;;;2072445;28;20661;-61
2022/03/10 01:18:19;;;;;;;19.60;16.73;;;;;;;;;;2056347;28;20483;-63
2022/03/10 01:19:19;;;;;;;17.60;15.57;;;;;;;;;;2063475;28;20213;-63
2022/03/10 01:20:20;;;;;;;17.57;15.60;;;;;;;;;;2061965;28;20169;-64
2022/03/10 01:21:21;;;;;;;20.40;16.37;;;;;;;;;;2063756;28;20203;-63
2022/03/10 01:22:21;;;;;;;20.73;17.47;;;;;;;;;;2072633;28;20207;-62
2022/03/10 01:23:21;;;;;;;19.63;15.83;;;;;;;;;;2070774;28;20265;-61
2022/03/10 01:24:22;;;;;;;20.50;16.83;;;;;;;;;;2070512;28;20673;-64
2022/03/10 01:25:22;;;;;;;23.20;17.50;;;;;;;;;;2070298;28;20209;-65
2022/03/10 01:26:23;;;;;;;19.33;16.23;;;;;;;;;;2070924;28;20185;-63
2022/03/10 01:27:23;;;;;;;20.83;17.30;;;;;;;;;;2064301;28;20173;-63
2022/03/10 01:28:23;;;;;;;20.70;16.20;;;;;;;;;;2064111;28;20231;-63
2022/03/10 01:29:24;;;;;;;19.83;15.73;;;;;;;;;;2064011;28;20181;-63
2022/03/10 01:30:25;;;;;;;21.90;16.87;;;;;;;;;;2063711;28;20197;-64
2022/03/10 01:31:25;;;;;;;23.57;17.93;;;;;;;;;;2068145;28;20204;-57
2022/03/10 01:32:25;;;;;;;20.00;16.53;;;;;;;;;;2071202;28;20235;-63
2022/03/10 01:33:25;;;;;;;20.13;16.83;;;;;;;;;;2073128;28;20176;-63
2022/03/10 01:34:26;;;;;;;22.83;16.57;;;;;;;;;;2072806;28;20700;-61
2022/03/10 01:35:26;;;;;;;21.37;16.73;;;;;;;;;;2072790;28;20173;-62
2022/03/10 01:36:26;;;;;;;23.03;16.90;;;;;;;;;;2072584;28;20189;-59
2022/03/10 01:37:28;;;;;;;18.30;15.60;;;;;;;;;;2073406;28;20176;-60
2022/03/10 01:38:29;;;;;;;18.23;15.90;;;;;;;;;;2073223;28;20173;-63
2022/03/10 01:39:32;;;;;;;20.43;16.70;;;;;;;;;;2073249;28;20204;-61
2022/03/10 01:40:32;;;;;;;19.90;15.83;;;;;;;;;;2073296;28;20199;-62
2022/03/10 01:41:33;;;;;;;18.60;15.03;;;;;;;;;;2073248;28;20786;-63
2022/03/10 01:42:34;;;;;;;19.37;16.40;;;;;;;;;;2064654;28;20173;-61
2022/03/10 01:43:53;;;;;;;18.47;15.73;;;;;;;;;;2064560;28;20204;-60
2022/03/10 01:44:54;;;;;;;19.63;15.70;;;;;;;;;;2072939;28;20165;-63
2022/03/10 01:45:55;;;;;;;18.63;15.90;;;;;;;;;;2073274;28;20406;-60
2022/03/10 01:46:55;;;;;;;18.87;15.43;;;;;;;;;;2064431;28;20693;-61
2022/03/10 01:47:55;;;;;;;21.10;16.97;;;;;;;;;;2064581;28;20256;-59
2022/03/10 01:48:56;;;;;;;18.10;16.20;;;;;;;;;;2064563;28;20182;-63
2022/03/10 01:49:56;;;;;;;18.97;15.40;;;;;;;;;;2064375;28;20551;-62
2022/03/10 01:50:56;;;;;;;19.80;15.87;;;;;;;;;;2073180;28;20641;-62
2022/03/10 01:51:57;;;;;;;18.57;15.60;;;;;;;;;;2073262;28;20187;-66
2022/03/10 01:52:57;;;;;;;21.93;16.70;;;;;;;;;;2073362;28;20665;-60
2022/03/10 01:53:58;;;;;;;19.60;15.17;;;;;;;;;;2073001;28;20173;-57
2022/03/10 01:54:58;;;;;;;20.13;16.00;;;;;;;;;;2064391;28;20173;-64
2022/03/10 01:55:59;;;;;;;20.57;15.77;;;;;;;;;;2064353;28;20232;-61
2022/03/10 01:57:00;;;;;;;21.00;15.80;;;;;;;;;;2073256;28;20204;-60
2022/03/10 01:58:00;;;;;;;18.50;16.53;;;;;;;;;;2073220;28;20260;-62
2022/03/10 01:59:01;;;;;;;19.03;16.07;;;;;;;;;;2073349;28;20165;-63
2022/03/10 02:00:03;;;;;;;18.50;15.37;;;;;;;;;;2073864;28;20243;-65
2022/03/10 02:01:04;;;;;;;18.57;15.37;;;;;;;;;;2074995;28;20735;-59
2022/03/10 02:02:06;;;;;;;20.30;16.30;;;;;;;;;;2065574;28;20203;-61
2022/03/10 02:03:06;;;;;;;21.13;17.37;;;;;;;;;;2065308;28;20228;-60
2022/03/10 02:04:06;;;;;;;23.47;16.83;;;;;;;;;;2064142;28;20842;-61
2022/03/10 02:05:06;;;;;;;19.10;16.90;;;;;;;;;;2057013;28;20213;-59
2022/03/10 02:06:08;;;;;;;17.53;15.63;;;;;;;;;;2064858;28;20666;-61
2022/03/10 02:10:16;;;;;;;21.83;17.23;;;;;;;;;;2073736;28;20256;-59
2022/03/10 02:11:06;;;;;;;21.70;17.27;;;;;;;;;;2073095;28;20199;-58
2022/03/10 02:12:07;;;;;;;23.03;16.43;;;;;;;;;;2073059;28;20424;-59
2022/03/10 02:13:07;;;;;;;21.20;16.90;;;;;;;;;;2073201;28;20223;-63
2022/03/10 02:18:05;;;;;;;21.50;16.77;;;;;;;;;;2072533;28;20402;-58
2022/03/10 02:19:05;;;;;;;21.50;16.87;;;;;;;;;;2077848;28;20420;-56
2022/03/10 02:20:06;;;;;;;22.70;15.93;;;;;;;;;;2081292;28;20235;-60
2022/03/10 02:21:06;;;;;;;20.70;16.23;;;;;;;;;;2081291;28;20243;-57
2022/03/10 02:22:11;;;;;;;23.00;17.70;;;;;;;;;;2080522;28;20193;-58
2022/03/10 02:23:12;;;;;;;20.60;17.30;;;;;;;;;;2072228;28;20220;-59
2022/03/10 02:24:12;;;;;;;20.00;17.37;;;;;;;;;;2072196;28;20612;-58
2022/03/10 02:25:13;;;;;;;22.67;16.80;;;;;;;;;;2081151;28;20192;-60
2022/03/10 02:26:13;;;;;;;21.70;16.80;;;;;;;;;;2081297;28;20206;-56
2022/03/10 02:27:20;;;;;;;21.30;17.10;;;;;;;;;;2081082;28;20645;-61
2022/03/10 02:28:21;;;;;;;23.53;16.77;;;;;;;;;;2081239;28;20172;-60
2022/03/10 02:29:21;;;;;;;20.30;17.57;;;;;;;;;;2081180;28;20835;-62
2022/03/10 02:30:22;;;;;;;21.07;17.20;;;;;;;;;;2082137;28;20196;-63
2022/03/10 02:31:22;;;;;;;22.03;17.60;;;;;;;;;;2082668;28;20172;-64
2022/03/10 02:32:23;;;;;;;19.40;15.97;;;;;;;;;;2073953;28;20512;-63
2022/03/10 02:33:23;;;;;;;19.80;16.63;;;;;;;;;;2073871;28;20195;-61
2022/03/10 02:34:23;;;;;;;23.43;17.53;;;;;;;;;;2082246;28;20223;-61
2022/03/10 02:35:23;;;;;;;23.13;17.63;;;;;;;;;;2073911;28;20403;-62
2022/03/10 02:36:24;;;;;;;23.47;16.80;;;;;;;;;;2070413;28;20228;-62
2022/03/10 02:37:24;;;;;;;21.13;16.67;;;;;;;;;;2073613;28;20165;-62
2022/03/10 02:38:24;;;;;;;19.77;16.77;;;;;;;;;;2074595;28;20191;-61
2022/03/10 02:39:24;;;;;;;21.93;17.43;;;;;;;;;;2074376;28;20220;-58
2022/03/10 02:40:25;;;;;;;20.37;16.13;;;;;;;;;;2074501;28;20280;-63
2022/03/10 02:41:26;;;;;;;17.83;15.70;;;;;;;;;;2073052;28;20188;-62
2022/03/10 02:42:26;;;;;;;20.33;16.37;;;;;;;;;;2073844;28;20676;-64
2022/03/10 02:43:27;;;;;;;23.80;16.63;;;;;;;;;;2067311;28;20206;-63
2022/03/10 02:44:27;;;;;;;17.83;15.57;;;;;;;;;;2072331;28;20193;-63
2022/03/10 02:45:27;;;;;;;20.77;17.13;;;;;;;;;;2066228;28;20190;-64
2022/03/10 02:46:27;;;;;;;25.43;17.43;;;;;;;;;;2067015;28;20178;-63
2022/03/10 02:47:28;;;;;;;22.67;16.40;;;;;;;;;;2065575;28;20193;-64
2022/03/10 02:48:29;;;;;;;22.40;16.77;;;;;;;;;;2057505;28;20325;-63
2022/03/10 02:49:29;;;;;;;21.80;17.17;;;;;;;;;;2064501;28;20558;-63
2022/03/10 02:50:30;;;;;;;19.87;16.00;;;;;;;;;;2074195;28;20735;-62
2022/03/10 02:51:30;;;;;;;19.90;15.73;;;;;;;;;;2064712;28;20173;-64
2022/03/10 02:52:30;;;;;;;22.03;16.70;;;;;;;;;;2064346;28;20197;-58
2022/03/10 02:53:31;;;;;;;20.57;16.20;;;;;;;;;;2065634;28;20284;-62
2022/03/10 02:54:31;;;;;;;22.03;17.37;;;;;;;;;;2063188;28;20174;-62
2022/03/10 02:55:32;;;;;;;20.47;16.40;;;;;;;;;;2073221;28;20188;-62
2022/03/10 02:56:32;;;;;;;20.77;16.17;;;;;;;;;;2066684;28;20213;-62
2022/03/10 02:57:32;;;;;;;23.30;16.70;;;;;;;;;;2074037;28;20637;-62
2022/03/10 02:58:33;;;;;;;20.23;15.67;;;;;;;;;;2074307;28;20637;-61
2022/03/10 02:59:33;;;;;;;24.03;16.70;;;;;;;;;;2073656;28;20219;-62
2022/03/10 03:00:33;;;;;;;20.73;16.80;;;;;;;;;;2074160;28;20196;-62
2022/03/10 03:01:33;;;;;;;18.93;16.00;;;;;;;;;;2074276;28;20200;-61
2022/03/10 03:02:34;;;;;;;24.87;15.70;;;;;;;;;;2066249;28;20673;-61
2022/03/10 03:03:34;;;;;;;22.53;16.80;;;;;;;;;;2074177;28;20183;-59
2022/03/10 03:04:34;;;;;;;20.47;17.13;;;;;;;;;;2073711;28;20185;-63
2022/03/10 03:05:35;;;;;;;20.13;16.50;;;;;;;;;;2065267;28;20255;-62
2022/03/10 03:06:35;;;;;;;20.97;16.70;;;;;;;;;;2064795;28;20192;-61
2022/03/10 03:07:35;;;;;;;22.07;16.73;;;;;;;;;;2074177;28;20696;-63
2022/03/10 03:08:35;;;;;;;20.97;16.07;;;;;;;;;;2074200;28;20641;-62
2022/03/10 03:09:36;;;;;;;20.80;16.67;;;;;;;;;;2073813;28;20196;-60
2022/03/10 03:10:36;;;;;;;20.33;16.93;;;;;;;;;;2073426;28;20205;-61
2022/03/10 03:11:37;;;;;;;23.43;16.77;;;;;;;;;;2073268;28;20181;-61
2022/03/10 03:12:44;;;;;;;22.80;17.03;;;;;;;;;;2064794;28;20185;-62
2022/03/10 03:13:44;;;;;;;19.83;16.23;;;;;;;;;;2065340;28;20301;-61
2022/03/10 03:14:44;;;;;;;18.77;16.73;;;;;;;;;;2064464;28;20523;-63
2022/03/10 03:15:44;;;;;;;18.13;16.17;;;;;;;;;;2065028;28;20181;-61
2022/03/10 03:16:45;;;;;;;19.53;16.07;;;;;;;;;;2073228;28;20228;-62
2022/03/10 03:17:45;;;;;;;22.03;16.53;;;;;;;;;;2069750;28;20654;-60
2022/03/10 03:18:46;;;;;;;20.43;16.73;;;;;;;;;;2073258;28;20223;-60
2022/03/10 03:19:46;;;;;;;19.47;15.87;;;;;;;;;;2064822;28;20550;-59
2022/03/10 03:20:46;;;;;;;20.00;16.97;;;;;;;;;;2065323;28;20224;-62
2022/03/10 03:21:46;;;;;;;20.43;16.73;;;;;;;;;;2073972;28;20263;-57
2022/03/10 03:22:47;;;;;;;19.43;16.03;;;;;;;;;;2073227;28;20243;-63
2022/03/10 03:23:47;;;;;;;19.07;16.47;;;;;;;;;;2064966;28;20650;-63
2022/03/10 03:24:48;;;;;;;20.50;16.83;;;;;;;;;;2064313;28;20180;-61
2022/03/10 03:25:48;;;;;;;21.50;16.63;;;;;;;;;;2065573;28;20531;-60
2022/03/10 03:26:48;;;;;;;20.00;15.97;;;;;;;;;;2064782;28;20197;-62
2022/03/10 03:27:48;;;;;;;22.37;16.80;;;;;;;;;;2065399;28;20178;-62
2022/03/10 03:28:49;;;;;;;21.50;16.93;;;;;;;;;;2074233;28;20211;-59
2022/03/10 03:29:49;;;;;;;20.43;15.73;;;;;;;;;;2074083;28;20256;-64
2022/03/10 03:30:50;;;;;;;20.50;17.00;;;;;;;;;;2067845;28;20201;-62
2022/03/10 03:31:50;;;;;;;21.13;17.00;;;;;;;;;;2074087;28;20220;-63
2022/03/10 03:32:50;;;;;;;21.43;16.70;;;;;;;;;;2064824;28;20190;-60
2022/03/10 03:33:51;;;;;;;20.20;18.07;;;;;;;;;;2064895;28;20184;-62
2022/03/10 03:34:51;;;;;;;20.47;16.70;;;;;;;;;;2064185;28;20648;-63
2022/03/10 03:35:51;;;;;;;20.87;15.93;;;;;;;;;;2059343;28;20263;-61
2022/03/10 03:36:51;;;;;;;21.67;17.30;;;;;;;;;;2073961;28;20562;-61
2022/03/10 03:37:52;;;;;;;18.60;15.47;;;;;;;;;;2074063;28;20173;-62
2022/03/10 03:38:52;;;;;;;23.27;16.47;;;;;;;;;;2073690;28;20587;-62
2022/03/10 03:39:52;;;;;;;18.87;16.23;;;;;;;;;;2073019;28;20224;-61
2022/03/10 03:40:52;;;;;;;21.53;17.63;;;;;;;;;;2073083;28;20806;-63
2022/03/10 03:41:52;;;;;;;20.73;16.37;;;;;;;;;;2072845;28;20642;-63
2022/03/10 03:42:53;;;;;;;22.73;17.30;;;;;;;;;;2071553;28;20200;-64
2022/03/10 03:43:53;;;;;;;21.37;17.33;;;;;;;;;;2073777;28;20176;-62
2022/03/10 03:44:53;;;;;;;22.57;16.47;;;;;;;;;;2073094;28;20218;-60
2022/03/10 03:45:56;;;;;;;22.13;16.93;;;;;;;;;;2073771;28;20169;-62
2022/03/10 03:46:56;;;;;;;18.97;16.00;;;;;;;;;;2073256;28;20760;-61
2022/03/10 03:47:56;;;;;;;21.20;16.53;;;;;;;;;;2072974;28;20410;-61
2022/03/10 03:48:56;;;;;;;19.40;16.67;;;;;;;;;;2059387;28;20200;-63
2022/03/10 03:49:56;;;;;;;20.07;17.03;;;;;;;;;;2064646;28;20261;-63
2022/03/10 03:50:57;;;;;;;21.20;16.37;;;;;;;;;;2072663;28;20216;-62
2022/03/10 03:51:57;;;;;;;21.27;16.50;;;;;;;;;;2074210;28;20173;-65
2022/03/10 03:52:57;;;;;;;18.90;16.20;;;;;;;;;;2074406;28;20216;-63
2022/03/10 03:53:57;;;;;;;19.73;16.73;;;;;;;;;;2071688;28;20527;-62
2022/03/10 03:54:58;;;;;;;23.03;17.53;;;;;;;;;;2072970;28;20192;-63
2022/03/10 03:55:58;;;;;;;19.37;16.70;;;;;;;;;;2071248;28;20213;-63
2022/03/10 03:56:58;;;;;;;23.43;17.57;;;;;;;;;;2073332;28;20173;-61
2022/03/10 03:57:58;;;;;;;22.77;17.93;;;;;;;;;;2070830;28;20242;-59
2022/03/10 03:58:58;;;;;;;19.87;17.23;;;;;;;;;;2064899;28;20173;-60
2022/03/10 03:59:59;;;;;;;22.27;17.83;;;;;;;;;;2061930;28;20264;-58
2022/03/10 04:00:59;;;;;;;19.70;16.93;;;;;;;;;;2064801;28;20212;-62
2022/03/10 04:01:59;;;;;;;26.50;19.93;;;;;;;;;;2064686;28;20178;-61
2022/03/10 04:03:05;;;;;;;29.23;19.93;;;;;;;;;;2064710;28;20212;-62
2022/03/10 04:04:05;;;;;;;26.07;19.57;;;;;;;;;;2069870;28;20261;-59
2022/03/10 04:05:06;;;;;;;24.47;19.47;;;;;;;;;;2072606;28;20549;-57
2022/03/10 04:06:06;;;;;;;26.07;19.43;;;;;;;;;;2073229;28;20176;-62
2022/03/10 04:07:07;;;;;;;23.07;18.07;;;;;;;;;;2064421;28;20170;-62
2022/03/10 04:08:07;;;;;;;24.43;19.60;;;;;;;;;;2064634;28;20181;-61
2022/03/10 04:09:07;;;;;;;27.43;18.60;;;;;;;;;;2072827;28;20234;-62
2022/03/10 04:10:08;;;;;;;25.47;19.43;;;;;;;;;;2073118;28;20179;-60
2022/03/10 04:11:08;;;;;;;25.93;20.93;;;;;;;;;;2086247;23;20241;-62
2022/03/10 04:12:08;;;;;;;26.80;19.93;;;;;;;;;;2074641;28;20205;-62
2022/03/10 04:13:09;;;;;;;23.90;19.43;;;;;;;;;;2075137;28;20192;-59
2022/03/10 04:14:11;;;;;;;23.87;19.40;;;;;;;;;;2075940;28;20204;-60
2022/03/10 04:15:11;;;;;;;26.53;19.93;;;;;;;;;;2071879;28;20552;-61
2022/03/10 04:16:11;;;;;;;24.63;18.10;;;;;;;;;;2076579;28;20422;-61
2022/03/10 04:17:11;;;;;;;21.93;17.23;;;;;;;;;;2073349;28;20180;-58
2022/03/10 04:18:12;;;;;;;25.30;18.37;;;;;;;;;;2064525;28;20186;-60
2022/03/10 04:19:12;;;;;;;20.90;17.67;;;;;;;;;;2064663;28;20173;-57
2022/03/10 04:20:13;;;;;;;23.17;17.83;;;;;;;;;;2075989;28;20231;-60
2022/03/10 04:21:13;;;;;;;25.57;20.70;;;;;;;;;;2072960;28;20639;-60
2022/03/10 04:22:14;;;;;;;40.50;25.80;;;;;;;;;;2073725;28;20418;-59
2022/03/10 04:23:14;;;;;;;30.80;22.23;;;;;;;;;;2071233;28;20169;-60
2022/03/10 04:24:14;;;;;;;25.37;19.47;;;;;;;;;;2064437;28;20172;-58
2022/03/10 04:25:15;;;;;;;22.73;17.70;;;;;;;;;;2062315;28;20186;-61
2022/03/10 04:26:15;;;;;;;23.90;17.73;;;;;;;;;;2064514;28;20628;-59
2022/03/10 04:27:15;;;;;;;25.20;18.90;;;;;;;;;;2070857;28;20204;-60
2022/03/10 04:28:15;;;;;;;20.37;17.07;;;;;;;;;;2075809;28;20172;-57
2022/03/10 04:29:16;;;;;;;22.67;17.10;;;;;;;;;;2064622;28;20181;-57
2022/03/10 04:30:18;;;;;;;20.53;16.53;;;;;;;;;;2062089;28;20200;-60
2022/03/10 04:31:18;;;;;;;21.20;17.00;;;;;;;;;;2072619;28;20699;-58
2022/03/10 04:32:19;;;;;;;24.13;17.27;;;;;;;;;;2073653;28;20429;-57
2022/03/10 04:33:19;;;;;;;24.87;17.33;;;;;;;;;;2064321;28;20269;-59
2022/03/10 04:34:19;;;;;;;20.57;16.50;;;;;;;;;;2064140;28;20181;-62
2022/03/10 04:35:20;;;;;;;24.03;17.17;;;;;;;;;;2072952;28;20223;-63
2022/03/10 04:36:20;;;;;;;20.13;17.07;;;;;;;;;;2072979;28;20181;-61
2022/03/10 04:37:20;;;;;;;20.40;17.23;;;;;;;;;;2063736;28;20186;-57
2022/03/10 04:38:20;;;;;;;21.80;16.73;;;;;;;;;;2064328;28;20174;-58
2022/03/10 04:39:21;;;;;;;23.27;16.50;;;;;;;;;;2069887;28;20182;-59
2022/03/10 04:40:22;;;;;;;21.60;17.27;;;;;;;;;;2070978;28;20238;-58
2022/03/10 04:41:22;;;;;;;20.67;17.60;;;;;;;;;;2069518;28;20181;-58
2022/03/10 04:42:22;;;;;;;19.80;17.00;;;;;;;;;;2070362;28;20185;-60
2022/03/10 04:43:22;;;;;;;18.63;16.63;;;;;;;;;;2072215;28;20179;-58
2022/03/10 04:44:23;;;;;;;19.67;16.03;;;;;;;;;;2071607;28;20188;-60
2022/03/10 04:45:23;;;;;;;22.17;17.37;;;;;;;;;;2066886;28;20173;-62
2022/03/10 04:46:23;;;;;;;19.37;17.30;;;;;;;;;;2063777;28;20308;-61
2022/03/10 04:47:23;;;;;;;20.73;17.50;;;;;;;;;;2062745;28;20182;-60
2022/03/10 04:48:24;;;;;;;20.00;16.97;;;;;;;;;;2062077;28;21190;-56
2022/03/10 04:49:24;;;;;;;23.07;17.73;;;;;;;;;;2072181;28;20677;-61
2022/03/10 04:50:24;;;;;;;25.20;17.77;;;;;;;;;;2073604;28;20168;-62
2022/03/10 04:51:25;;;;;;;20.93;16.87;;;;;;;;;;2069815;28;20193;-60
2022/03/10 04:52:29;;;;;;;23.13;17.73;;;;;;;;;;2071738;28;20177;-61
2022/03/10 04:53:29;;;;;;;22.70;17.93;;;;;;;;;;2072025;28;20177;-60
2022/03/10 04:54:29;;;;;;;23.30;17.90;;;;;;;;;;2068872;28;20431;-60
2022/03/10 04:55:29;;;;;;;22.47;17.37;;;;;;;;;;2072981;28;20173;-61
2022/03/10 04:56:30;;;;;;;20.67;17.13;;;;;;;;;;2073581;28;20235;-59
2022/03/10 04:57:30;;;;;;;21.63;17.57;;;;;;;;;;2073319;28;20178;-61
2022/03/10 04:58:30;;;;;;;21.43;17.23;;;;;;;;;;2072838;28;20172;-57
2022/03/10 04:59:32;;;;;;;21.00;17.57;;;;;;;;;;2068420;28;20321;-59
2022/03/10 05:00:32;;;;;;;22.80;17.67;;;;;;;;;;2072214;28;20180;-61
2022/03/10 05:01:32;;;;;;;21.30;17.00;;;;;;;;;;2064232;28;20517;-61
2022/03/10 05:02:32;;;;;;;19.50;16.80;;;;;;;;;;2064113;28;20240;-60
2022/03/10 05:03:33;;;;;;;23.87;17.53;;;;;;;;;;2067395;28;20226;-62
2022/03/10 05:04:33;;;;;;;24.30;18.20;;;;;;;;;;2071900;28;20188;-62
2022/03/10 05:05:33;;;;;;;27.03;17.67;;;;;;;;;;2066917;28;20169;-59
2022/03/10 05:06:34;;;;;;;21.37;17.80;;;;;;;;;;2072783;28;20184;-59
2022/03/10 05:07:34;;;;;;;23.17;17.30;;;;;;;;;;2072696;28;20191;-63
2022/03/10 05:08:34;;;;;;;21.77;17.10;;;;;;;;;;2072967;28;20189;-61
2022/03/10 05:09:35;;;;;;;20.93;16.97;;;;;;;;;;2072579;28;20177;-59
2022/03/10 05:10:35;;;;;;;18.57;16.57;;;;;;;;;;2073159;28;20238;-58
2022/03/10 05:11:36;;;;;;;22.30;17.63;;;;;;;;;;2072882;28;20255;-62
2022/03/10 05:12:46;;;;;;;21.60;17.83;;;;;;;;;;2072226;28;20171;-58
2022/03/10 05:13:47;;;;;;;21.40;17.30;;;;;;;;;;2072785;28;20169;-57
2022/03/10 05:14:47;;;;;;;20.00;16.07;;;;;;;;;;2072202;28;20516;-60
2022/03/10 05:15:47;;;;;;;23.27;18.23;;;;;;;;;;2072911;28;20203;-61
2022/03/10 05:16:48;;;;;;;22.50;17.80;;;;;;;;;;2067623;28;20690;-59
2022/03/10 05:17:48;;;;;;;21.90;17.30;;;;;;;;;;2072689;28;20251;-61
2022/03/10 05:18:49;;;;;;;20.37;17.20;;;;;;;;;;2067416;28;20567;-59
2022/03/10 05:19:50;;;;;;;22.73;18.37;;;;;;;;;;2073019;28;20231;-56
2022/03/10 05:20:50;;;;;;;24.60;18.47;;;;;;;;;;2067440;28;20385;-58
2022/03/10 05:21:50;;;;;;;21.73;17.33;;;;;;;;;;2073459;28;20915;-61
2022/03/10 05:22:52;;;;;;;20.67;17.73;;;;;;;;;;2071900;28;20219;-60
2022/03/10 05:23:52;;;;;;;20.67;16.77;;;;;;;;;;2067646;28;20200;-57
2022/03/10 05:24:52;;;;;;;23.53;17.57;;;;;;;;;;2072750;28;20387;-61
2022/03/10 05:25:53;;;;;;;23.50;17.53;;;;;;;;;;2072868;28;20181;-60
2022/03/10 05:26:53;;;;;;;21.70;16.93;;;;;;;;;;2064239;28;20177;-60
2022/03/10 05:27:53;;;;;;;22.27;18.00;;;;;;;;;;2063805;28;20260;-61
2022/03/10 05:28:54;;;;;;;23.87;18.40;;;;;;;;;;2072883;28;20388;-60
2022/03/10 05:29:54;;;;;;;21.27;17.73;;;;;;;;;;2064231;28;20208;-63
2022/03/10 05:30:54;;;;;;;21.30;17.63;;;;;;;;;;2064517;28;20224;-57
2022/03/10 05:31:54;;;;;;;20.43;17.13;;;;;;;;;;2063911;28;20224;-58
2022/03/10 05:32:55;;;;;;;27.73;19.20;;;;;;;;;;2063782;28;20273;-61
2022/03/10 05:33:55;;;;;;;21.53;16.67;;;;;;;;;;2067882;28;20589;-60
2022/03/10 05:34:56;;;;;;;21.53;17.60;;;;;;;;;;2072422;28;20203;-61
2022/03/10 05:35:56;;;;;;;23.37;18.13;;;;;;;;;;2067946;28;20212;-60
2022/03/10 05:36:56;;;;;;;23.53;16.97;;;;;;;;;;2073355;28;20531;-58
2022/03/10 05:37:57;;;;;;;20.57;16.97;;;;;;;;;;2071552;28;20219;-59
2022/03/10 05:38:57;;;;;;;21.63;17.10;;;;;;;;;;2068277;28;20656;-57
2022/03/10 05:39:58;;;;;;;21.07;18.00;;;;;;;;;;2063915;28;20624;-60
2022/03/10 05:40:59;;;;;;;23.53;18.37;;;;;;;;;;2063853;28;20193;-62
2022/03/10 05:42:00;;;;;;;22.87;18.57;;;;;;;;;;2073358;28;20173;-61
2022/03/10 05:43:00;;;;;;;23.13;17.33;;;;;;;;;;2064171;28;20427;-60
2022/03/10 05:44:00;;;;;;;25.23;18.63;;;;;;;;;;2064296;28;20169;-60
2022/03/10 05:45:01;;;;;;;20.63;17.50;;;;;;;;;;2073416;28;20212;-60
2022/03/10 05:46:01;;;;;;;20.43;17.37;;;;;;;;;;2070499;28;20190;-62
2022/03/10 05:47:02;;;;;;;21.23;16.63;;;;;;;;;;2072989;28;20752;-60
2022/03/10 05:48:02;;;;;;;24.53;19.03;;;;;;;;;;2070729;28;20166;-63
2022/03/10 05:49:02;;;;;;;22.57;18.03;;;;;;;;;;2073204;28;20189;-64
2022/03/10 05:50:03;;;;;;;19.40;16.47;;;;;;;;;;2072732;28;20188;-61
2022/03/10 05:51:03;;;;;;;23.20;17.63;;;;;;;;;;2063739;28;20569;-61
2022/03/10 05:52:04;;;;;;;23.03;18.40;;;;;;;;;;2063423;28;20174;-60
2022/03/10 05:53:06;;;;;;;20.87;17.07;;;;;;;;;;2063628;28;20184;-61
2022/03/10 05:54:06;;;;;;;25.07;17.83;;;;;;;;;;2063367;28;20427;-62
2022/03/10 05:55:06;;;;;;;23.17;17.17;;;;;;;;;;2064047;28;20403;-61
2022/03/10 05:56:06;;;;;;;21.93;17.27;;;;;;;;;;2063359;28;20219;-60
2022/03/10 05:57:07;;;;;;;18.93;16.57;;;;;;;;;;2072519;28;20188;-62
2022/03/10 05:58:07;;;;;;;21.83;17.20;;;;;;;;;;2072059;28;20184;-61
2022/03/10 05:59:08;;;;;;;19.90;16.87;;;;;;;;;;2055666;28;20178;-59